Time;durP1;ratioP1;P1;durP2;ratioP2;P2;SDS_P1;SDS_P2;PMS_P1;PMS_P2;Temp;Humidity;BMP_temperature;BMP_pressure;BME280_temperature;BME280_humidity;BME280_pressure;Samples;Min_cycle;Max_cycle;Signal;HPM_P1;HPM_P2
2023/07/08 00:00:58;;;;;;;6.35;4.32;;;23.10;39.50;;;;;;6280970;22;19996;-70
2023/07/08 00:03:37;;;;;;;4.68;3.65;;;23.10;39.80;;;;;;6281316;22;20057;-70
2023/07/08 00:06:13;;;;;;;5.03;3.15;;;23.10;39.50;;;;;;6278617;22;20435;-69
2023/07/08 00:08:55;;;;;;;7.47;3.47;;;23.10;39.30;;;;;;6278542;22;20011;-69
2023/07/08 00:11:37;;;;;;;5.85;3.55;;;23.00;39.90;;;;;;6251275;22;20003;-69
2023/07/08 00:14:18;;;;;;;6.22;3.42;;;23.00;39.90;;;;;;6279216;22;19992;-67
2023/07/08 00:16:58;;;;;;;6.50;4.15;;;23.00;39.90;;;;;;6252850;22;20311;-69
2023/07/08 00:19:34;;;;;;;5.28;3.85;;;22.90;39.70;;;;;;6251670;22;20007;-69
2023/07/08 00:22:19;;;;;;;7.25;3.80;;;22.90;39.80;;;;;;6279131;22;20006;-68
2023/07/08 00:24:56;;;;;;;;;;;22.80;40.00;;;;;;6252431;22;19999;-69
2023/07/08 00:27:27;;;;;;;4.82;3.72;;;22.80;39.30;;;;;;6278659;22;19895;-68
2023/07/08 00:30:00;;;;;;;5.05;3.60;;;22.80;40.00;;;;;;6278667;22;20091;-70
2023/07/08 00:32:36;;;;;;;6.00;3.30;;;22.80;40.10;;;;;;6278700;22;20150;-69
2023/07/08 00:35:07;;;;;;;5.00;3.78;;;22.70;40.00;;;;;;6251370;22;20006;-69
2023/07/08 00:37:49;;;;;;;6.35;3.67;;;22.70;40.30;;;;;;6279030;22;19996;-69
2023/07/08 00:40:18;;;;;;;5.03;3.05;;;22.60;40.30;;;;;;6248025;22;20032;-68
2023/07/08 00:42:44;;;;;;;7.50;3.72;;;22.60;40.60;;;;;;6276744;22;20070;-68
2023/07/08 00:45:42;;;;;;;5.57;3.67;;;22.60;41.10;;;;;;6249464;22;20000;-68
2023/07/08 00:48:28;;;;;;;6.20;3.55;;;22.50;40.80;;;;;;6276006;22;20002;-69
2023/07/08 00:50:54;;;;;;;4.65;3.40;;;22.50;40.70;;;;;;6249432;22;20023;-68
2023/07/08 00:53:28;;;;;;;5.70;3.67;;;22.50;40.70;;;;;;6276774;22;20003;-68
2023/07/08 00:56:17;;;;;;;4.97;3.70;;;22.40;40.40;;;;;;6249159;22;20414;-69
2023/07/08 00:58:52;;;;;;;4.57;3.08;;;22.40;40.50;;;;;;6275421;22;19999;-69
2023/07/08 01:01:18;;;;;;;6.32;4.13;;;22.40;40.50;;;;;;6249363;22;20458;-68
2023/07/08 01:04:16;;;;;;;5.63;3.72;;;22.40;40.70;;;;;;6276692;22;20004;-68
2023/07/08 01:06:45;;;;;;;4.47;3.42;;;22.30;40.80;;;;;;6274644;22;20007;-71
2023/07/08 01:09:14;;;;;;;4.82;3.28;;;22.30;40.80;;;;;;6248410;22;20075;-69
2023/07/08 01:11:41;;;;;;;4.75;3.50;;;22.30;41.00;;;;;;6275967;22;20308;-68
2023/07/08 01:14:12;;;;;;;6.28;3.78;;;22.30;40.90;;;;;;6249104;22;20358;-69
2023/07/08 01:16:38;;;;;;;7.57;3.35;;;22.30;40.80;;;;;;6275698;22;20002;-68
2023/07/08 01:19:09;;;;;;;5.40;3.65;;;22.20;40.70;;;;;;6275116;22;19996;-70
2023/07/08 01:21:59;;;;;;;3.90;2.90;;;22.20;40.90;;;;;;6275913;22;20004;-69
2023/07/08 01:24:27;;;;;;;5.22;3.45;;;22.20;40.90;;;;;;6274836;22;20000;-70
2023/07/08 01:26:53;;;;;;;5.47;3.60;;;22.20;41.10;;;;;;6249073;22;19991;-70
2023/07/08 01:29:19;;;;;;;3.80;2.92;;;22.20;41.10;;;;;;6275062;22;20006;-69
2023/07/08 01:31:48;;;;;;;3.80;3.03;;;22.20;41.00;;;;;;6275725;22;20347;-68
2023/07/08 01:34:16;;;;;;;5.50;3.67;;;22.20;40.90;;;;;;6275970;22;20000;-70
2023/07/08 01:36:47;;;;;;;5.13;3.45;;;22.20;40.90;;;;;;6248678;22;20038;-69
2023/07/08 01:39:17;;;;;;;4.32;3.42;;;22.20;40.80;;;;;;6276154;22;20042;-68
2023/07/08 01:41:59;;;;;;;4.18;3.17;;;22.20;40.80;;;;;;6250637;22;19999;-68
2023/07/08 01:44:38;;;;;;;4.80;3.05;;;22.10;40.80;;;;;;6278006;22;20316;-69
2023/07/08 01:47:20;;;;;;;14.15;3.70;;;22.20;40.50;;;;;;6278430;22;19995;-69
2023/07/08 01:50:02;;;;;;;6.00;4.00;;;22.20;40.20;;;;;;6277929;22;20043;-69
2023/07/08 01:52:33;;;;;;;4.47;3.25;;;22.20;40.60;;;;;;6277884;22;20093;-70
2023/07/08 01:55:10;;;;;;;4.57;3.20;;;22.30;40.60;;;;;;6278303;22;20000;-69
2023/07/08 01:57:42;;;;;;;4.80;3.50;;;22.30;40.70;;;;;;6278195;22;20066;-70
2023/07/08 02:00:27;;;;;;;4.80;3.38;;;22.30;40.50;;;;;;6251359;22;20069;-70
2023/07/08 02:02:58;;;;;;;5.47;3.63;;;22.30;40.50;;;;;;6277695;22;20007;-70
2023/07/08 02:05:40;;;;;;;4.82;3.38;;;22.30;41.10;;;;;;6278119;22;20385;-68
2023/07/08 02:08:21;;;;;;;6.60;3.80;;;22.30;40.50;;;;;;6277653;22;20049;-69
2023/07/08 02:10:58;;;;;;;5.75;3.92;;;22.30;40.50;;;;;;6278007;22;19992;-68
2023/07/08 02:13:43;;;;;;;5.03;3.45;;;22.30;40.40;;;;;;6251312;22;20303;-68
2023/07/08 02:16:14;;;;;;;6.10;3.58;;;22.30;40.60;;;;;;6277163;22;20425;-69
2023/07/08 02:19:02;;;;;;;5.38;3.60;;;22.30;40.40;;;;;;6249903;22;19996;-69
2023/07/08 02:21:33;;;;;;;5.07;3.20;;;22.30;40.70;;;;;;6277278;22;20021;-69
2023/07/08 02:24:08;;;;;;;6.22;3.60;;;22.30;40.60;;;;;;6250922;22;20007;-69
2023/07/08 02:26:50;;;;;;;6.28;3.58;;;22.20;40.50;;;;;;6277361;22;19992;-69
2023/07/08 02:29:29;;;;;;;5.00;3.38;;;22.30;40.80;;;;;;6250265;22;19996;-69
2023/07/08 02:32:05;;;;;;;5.10;3.83;;;22.30;40.70;;;;;;6250241;22;20003;-69
2023/07/08 02:34:47;;;;;;;5.85;3.47;;;22.20;41.00;;;;;;6277604;22;20000;-69
2023/07/08 02:37:18;;;;;;;7.18;3.85;;;22.20;41.10;;;;;;6277615;22;19995;-69
2023/07/08 02:39:57;;;;;;;10.10;4.35;;;22.20;42.20;;;;;;6251115;22;20002;-69
2023/07/08 02:42:39;;;;;;;6.30;4.00;;;22.10;42.10;;;;;;6277580;22;20066;-69
2023/07/08 02:45:21;;;;;;;5.63;3.90;;;22.10;42.30;;;;;;6251389;22;20408;-69
2023/07/08 02:48:02;;;;;;;6.65;3.50;;;22.00;42.20;;;;;;6277488;22;20063;-69
2023/07/08 02:50:33;;;;;;;5.07;3.00;;;22.00;41.90;;;;;;6277442;22;19996;-69
2023/07/08 02:53:18;;;;;;;5.88;4.10;;;22.00;42.70;;;;;;6249076;22;20350;-69
2023/07/08 02:56:01;;;;;;;6.30;3.92;;;22.00;42.70;;;;;;6249829;22;20078;-68
2023/07/08 02:58:42;;;;;;;5.90;3.97;;;21.90;42.60;;;;;;6277845;22;19991;-69
2023/07/08 03:01:17;;;;;;;7.13;3.42;;;21.90;42.60;;;;;;6277428;22;19992;-69
2023/07/08 03:03:58;;;;;;;5.95;4.13;;;21.80;42.70;;;;;;6277396;22;20074;-69
2023/07/08 03:06:37;;;;;;;5.88;3.38;;;21.80;43.50;;;;;;6249971;22;20054;-69
2023/07/08 03:09:20;;;;;;;7.25;4.63;;;21.80;43.00;;;;;;6277475;22;19991;-69
2023/07/08 03:11:54;;;;;;;7.47;4.07;;;21.80;43.40;;;;;;6276995;22;20078;-69
2023/07/08 03:14:35;;;;;;;8.50;4.35;;;21.80;43.40;;;;;;6277369;22;20000;-69
2023/07/08 03:17:18;;;;;;;5.82;4.10;;;21.70;42.90;;;;;;6277379;22;20258;-69
2023/07/08 03:19:46;;;;;;;5.10;3.70;;;21.80;43.00;;;;;;6277053;22;20062;-69
2023/07/08 03:22:27;;;;;;;8.95;3.28;;;21.70;43.10;;;;;;6250172;22;20004;-69
2023/07/08 03:25:09;;;;;;;6.68;3.60;;;21.70;43.00;;;;;;6250068;22;19997;-69
2023/07/08 03:27:43;;;;;;;5.53;3.63;;;21.60;43.30;;;;;;6251231;22;20004;-69
2023/07/08 03:30:11;;;;;;;5.72;3.58;;;21.60;43.10;;;;;;6277272;22;20154;-69
2023/07/08 03:32:56;;;;;;;5.57;3.80;;;21.60;43.50;;;;;;6276780;22;20008;-69
2023/07/08 03:35:41;;;;;;;5.45;3.42;;;21.50;43.50;;;;;;6277345;22;20042;-69
2023/07/08 03:38:28;;;;;;;4.97;3.50;;;21.50;43.70;;;;;;6277346;22;19996;-69
2023/07/08 03:41:13;;;;;;;5.13;3.72;;;21.50;43.80;;;;;;6278250;22;20006;-69
2023/07/08 03:43:50;;;;;;;6.18;4.10;;;21.50;43.60;;;;;;6251240;22;20075;-69
2023/07/08 03:46:26;;;;;;;5.13;3.75;;;21.40;44.00;;;;;;6279546;22;19996;-69
2023/07/08 03:49:14;;;;;;;5.07;3.20;;;21.50;44.30;;;;;;6279916;22;20279;-69
2023/07/08 03:51:59;;;;;;;7.78;3.67;;;21.40;44.30;;;;;;6279098;22;20039;-69
2023/07/08 03:54:40;;;;;;;4.65;3.67;;;21.40;44.40;;;;;;6279710;22;20004;-69
2023/07/08 03:57:12;;;;;;;5.30;3.97;;;21.40;44.50;;;;;;6279592;22;19991;-69
2023/07/08 03:59:57;;;;;;;6.32;3.58;;;21.40;44.90;;;;;;6252441;22;20054;-69
2023/07/08 04:02:28;;;;;;;5.53;4.00;;;21.40;44.50;;;;;;6251533;22;20314;-71
2023/07/08 04:05:01;;;;;;;5.60;3.65;;;21.40;44.70;;;;;;6279405;22;19991;-68
2023/07/08 04:07:33;;;;;;;5.57;3.65;;;21.40;44.80;;;;;;6279278;22;20023;-67
2023/07/08 04:10:16;;;;;;;8.68;4.07;;;21.40;44.60;;;;;;6251665;22;19995;-68
2023/07/08 04:13:03;;;;;;;5.57;3.50;;;21.40;45.00;;;;;;6251779;22;20162;-68
2023/07/08 04:15:34;;;;;;;5.38;3.60;;;21.40;45.00;;;;;;6251764;22;20043;-68
2023/07/08 04:18:13;;;;;;;5.03;3.53;;;21.40;45.10;;;;;;6278920;22;20000;-68
2023/07/08 04:20:44;;;;;;;4.93;3.35;;;21.40;45.20;;;;;;6251635;22;20078;-68
2023/07/08 04:23:15;;;;;;;7.30;4.10;;;21.40;45.10;;;;;;6278896;22;20045;-68
2023/07/08 04:25:54;;;;;;;9.27;4.53;;;21.50;45.30;;;;;;6278816;22;19996;-68
2023/07/08 04:28:25;;;;;;;5.05;4.10;;;21.50;45.60;;;;;;6252743;22;20000;-69
2023/07/08 04:31:10;;;;;;;12.85;4.40;;;21.50;45.40;;;;;;6251580;22;19999;-69
2023/07/08 04:33:49;;;;;;;7.15;3.80;;;21.60;45.80;;;;;;6250409;22;19996;-69
2023/07/08 04:36:21;;;;;;;5.05;3.65;;;21.60;45.80;;;;;;6251464;22;20004;-68
2023/07/08 04:39:11;;;;;;;5.50;3.70;;;21.70;45.60;;;;;;6278729;22;19998;-68
2023/07/08 04:41:40;;;;;;;5.15;4.00;;;21.70;45.60;;;;;;6250235;22;19999;-68
2023/07/08 04:44:30;;;;;;;5.18;3.53;;;21.80;45.40;;;;;;6251411;22;20052;-68
2023/07/08 04:47:04;;;;;;;5.35;3.60;;;21.90;45.50;;;;;;6278622;22;20059;-69
2023/07/08 04:49:35;;;;;;;7.03;3.55;;;22.00;45.30;;;;;;6278673;22;19988;-68
2023/07/08 04:52:09;;;;;;;4.93;3.00;;;22.10;45.70;;;;;;6251236;22;20003;-68
2023/07/08 04:54:43;;;;;;;5.97;3.88;;;22.20;46.20;;;;;;6278914;22;20004;-69
2023/07/08 04:57:31;;;;;;;6.55;3.17;;;22.30;45.80;;;;;;6252059;22;19999;-69
2023/07/08 05:00:12;;;;;;;6.38;3.80;;;22.40;45.30;;;;;;6278822;22;19992;-69
2023/07/08 05:02:53;;;;;;;6.40;3.50;;;22.40;44.90;;;;;;6251166;22;20007;-69
2023/07/08 05:05:35;;;;;;;6.07;3.75;;;22.50;45.10;;;;;;6249783;22;19995;-69
2023/07/08 05:08:17;;;;;;;7.78;4.50;;;22.60;45.20;;;;;;6278432;22;20371;-70
2023/07/08 05:10:51;;;;;;;6.38;3.53;;;22.70;45.10;;;;;;6277921;22;19995;-70
2023/07/08 05:13:27;;;;;;;6.30;3.50;;;22.80;44.80;;;;;;6278811;22;20087;-69
2023/07/08 05:15:59;;;;;;;5.32;3.28;;;22.90;44.90;;;;;;6278281;22;19987;-69
2023/07/08 05:18:35;;;;;;;5.07;3.40;;;22.90;44.50;;;;;;6277979;22;19992;-69
2023/07/08 05:21:14;;;;;;;7.43;3.67;;;23.00;44.20;;;;;;6278652;22;20046;-67
2023/07/08 05:23:50;;;;;;;8.20;3.55;;;23.20;43.80;;;;;;6277904;22;20094;-69
2023/07/08 05:26:35;;;;;;;9.32;3.83;;;23.30;43.20;;;;;;6278223;22;19987;-69
2023/07/08 05:29:11;;;;;;;5.20;3.88;;;23.30;43.00;;;;;;6277825;22;19996;-69
2023/07/08 05:31:47;;;;;;;7.05;4.07;;;23.50;42.80;;;;;;6278768;22;19999;-69
2023/07/08 05:34:38;;;;;;;6.10;3.83;;;23.60;41.90;;;;;;6251657;22;20404;-68
2023/07/08 05:37:15;;;;;;;5.63;3.53;;;23.80;42.00;;;;;;6278523;22;20335;-68
2023/07/08 05:39:57;;;;;;;8.88;3.92;;;24.00;41.10;;;;;;6278380;22;20424;-68
2023/07/08 05:42:38;;;;;;;5.68;3.55;;;24.20;40.30;;;;;;6278109;22;19995;-68
2023/07/08 05:45:20;;;;;;;8.35;3.70;;;24.40;40.40;;;;;;6250737;22;20000;-68
2023/07/08 05:48:03;;;;;;;6.35;4.38;;;24.60;39.50;;;;;;6277622;22;19996;-68
2023/07/08 05:50:41;;;;;;;6.45;3.55;;;24.80;38.50;;;;;;6277903;22;20343;-69
2023/07/08 05:53:18;;;;;;;6.28;3.70;;;25.00;38.90;;;;;;6277948;22;20351;-68
2023/07/08 05:56:03;;;;;;;4.82;3.75;;;25.20;38.90;;;;;;6277413;22;20434;-69
2023/07/08 05:58:45;;;;;;;6.43;4.18;;;25.30;38.30;;;;;;6277777;22;19996;-69
2023/07/08 06:01:19;;;;;;;5.85;4.05;;;25.60;38.10;;;;;;6251176;22;20415;-68
2023/07/08 06:03:59;;;;;;;8.20;4.57;;;25.70;37.20;;;;;;6250757;22;20061;-68
2023/07/08 06:06:31;;;;;;;7.57;3.97;;;25.80;36.50;;;;;;6251424;22;20407;-69
2023/07/08 06:09:11;;;;;;;5.40;3.83;;;25.90;35.50;;;;;;6250370;22;20407;-70
2023/07/08 06:11:52;;;;;;;6.43;3.70;;;26.00;35.90;;;;;;6225671;22;20031;-68
2023/07/08 06:14:37;;;;;;;5.10;3.40;;;26.10;35.80;;;;;;6277624;22;20006;-68
2023/07/08 06:17:08;;;;;;;5.50;3.35;;;26.20;36.10;;;;;;6277607;22;20010;-69
2023/07/08 06:19:48;;;;;;;4.25;3.45;;;26.30;36.30;;;;;;6277979;22;19992;-69
2023/07/08 06:22:32;;;;;;;6.95;3.53;;;26.30;35.60;;;;;;6277947;22;20138;-69
2023/07/08 06:25:06;;;;;;;4.53;3.35;;;26.40;36.20;;;;;;6277246;22;20412;-69
2023/07/08 06:27:45;;;;;;;5.28;3.80;;;26.40;36.00;;;;;;6277483;22;20045;-68
2023/07/08 06:30:18;;;;;;;6.88;4.32;;;26.40;35.90;;;;;;6277498;22;20077;-68
2023/07/08 06:33:00;;;;;;;6.83;4.10;;;26.50;35.40;;;;;;6250489;22;20004;-69
2023/07/08 06:35:39;;;;;;;5.15;3.80;;;26.50;35.10;;;;;;6277166;22;19995;-68
2023/07/08 06:38:16;;;;;;;6.45;3.80;;;26.50;35.10;;;;;;6250015;22;20049;-69
2023/07/08 06:40:58;;;;;;;6.85;4.05;;;26.50;34.70;;;;;;6251326;22;20299;-68
2023/07/08 06:43:40;;;;;;;15.07;4.00;;;26.50;35.10;;;;;;6277140;22;20408;-69
2023/07/08 06:46:21;;;;;;;5.30;3.35;;;26.50;35.30;;;;;;6277103;22;20067;-68
2023/07/08 06:49:08;;;;;;;5.10;3.60;;;26.60;35.00;;;;;;6277154;22;20062;-69
2023/07/08 06:51:50;;;;;;;4.80;3.65;;;26.60;35.40;;;;;;6250300;22;19999;-69
2023/07/08 06:54:35;;;;;;;5.10;3.47;;;26.70;35.10;;;;;;6277106;22;19992;-69
2023/07/08 06:57:18;;;;;;;6.53;4.00;;;26.70;35.20;;;;;;6249078;22;20047;-69
2023/07/08 06:59:49;;;;;;;4.63;3.95;;;26.80;35.20;;;;;;6277470;22;20067;-73
2023/07/08 07:02:20;;;;;;;13.80;4.03;;;26.90;35.40;;;;;;6250587;22;20007;-73
2023/07/08 07:04:48;;;;;;;8.68;4.80;;;27.00;34.60;;;;;;6276558;22;19998;-70
2023/07/08 07:07:17;;;;;;;6.32;3.88;;;27.10;34.90;;;;;;6276628;22;19992;-71
2023/07/08 07:09:48;;;;;;;6.20;4.55;;;27.30;35.00;;;;;;6248304;22;19996;-71
2023/07/08 07:12:24;;;;;;;10.18;4.30;;;27.30;34.80;;;;;;6275220;22;19992;-71
2023/07/08 07:15:06;;;;;;;6.75;4.47;;;27.40;34.20;;;;;;6276919;22;20070;-71
2023/07/08 07:17:40;;;;;;;6.40;4.15;;;27.50;34.20;;;;;;6250676;22;19992;-70
2023/07/08 07:20:17;;;;;;;8.52;4.65;;;27.50;34.20;;;;;;6277714;22;20044;-70
2023/07/08 07:23:01;;;;;;;8.38;3.10;;;27.50;34.40;;;;;;6277410;22;19995;-71
2023/07/08 07:25:40;;;;;;;7.10;4.00;;;27.60;34.90;;;;;;6277075;22;20316;-70
2023/07/08 07:28:16;;;;;;;5.95;4.05;;;27.60;34.30;;;;;;6250273;22;19999;-69
2023/07/08 07:31:17;;;;;;;8.00;4.30;;;27.70;34.00;;;;;;6249860;22;20305;-70
2023/07/08 07:33:45;;;;;;;6.05;4.22;;;27.60;34.40;;;;;;6276887;22;19996;-70
2023/07/08 07:36:30;;;;;;;9.77;4.32;;;27.70;34.40;;;;;;6250243;22;20435;-69
2023/07/08 07:39:01;;;;;;;6.15;4.40;;;27.60;34.20;;;;;;6276999;22;20019;-70
2023/07/08 07:41:43;;;;;;;8.32;4.32;;;27.70;34.60;;;;;;6249311;22;20000;-71
2023/07/08 07:44:16;;;;;;;6.75;3.88;;;27.70;34.40;;;;;;6277413;22;20002;-71
2023/07/08 07:46:50;;;;;;;;;;;27.70;34.80;;;;;;6250487;22;20300;-70
2023/07/08 07:49:21;;;;;;;14.68;4.32;;;27.80;35.00;;;;;;6277064;22;20196;-70
2023/07/08 07:51:53;;;;;;;5.18;4.05;;;27.80;34.40;;;;;;6249822;22;20000;-70
2023/07/08 07:54:26;;;;;;;5.65;3.67;;;27.80;34.60;;;;;;6277222;22;19999;-70
2023/07/08 07:57:05;;;;;;;6.13;3.78;;;27.80;34.00;;;;;;6276766;22;20003;-72
2023/07/08 07:59:38;;;;;;;17.20;4.47;;;27.80;34.50;;;;;;6277089;22;19992;-71
2023/07/08 08:02:11;;;;;;;6.70;4.60;;;27.90;34.40;;;;;;6249427;22;20010;-70
2023/07/08 08:04:46;;;;;;;6.40;3.80;;;27.90;33.70;;;;;;6249907;22;20000;-71
2023/07/08 08:07:17;;;;;;;6.80;4.13;;;27.90;33.90;;;;;;6250282;22;20334;-76
2023/07/08 08:09:48;;;;;;;5.00;3.83;;;27.90;33.80;;;;;;6276827;22;19988;-75
2023/07/08 08:12:14;;;;;;;5.65;4.28;;;28.00;34.20;;;;;;6276296;22;19995;-70
2023/07/08 08:14:40;;;;;;;5.65;3.42;;;28.00;33.50;;;;;;6276801;22;19996;-69
2023/07/08 08:17:06;;;;;;;10.43;4.75;;;28.10;34.00;;;;;;6277181;22;20380;-70
2023/07/08 08:19:32;;;;;;;4.85;3.60;;;28.10;33.40;;;;;;6276671;22;20026;-70
2023/07/08 08:22:17;;;;;;;7.53;3.83;;;28.20;33.80;;;;;;6249721;22;20408;-71
2023/07/08 08:24:54;;;;;;;8.23;4.35;;;28.20;33.50;;;;;;6276005;22;20013;-73
2023/07/08 08:27:25;;;;;;;6.90;4.18;;;28.30;33.50;;;;;;6249137;22;20061;-73
2023/07/08 08:30:10;;;;;;;6.07;4.15;;;28.30;32.50;;;;;;6249156;22;20007;-70
2023/07/08 08:32:46;;;;;;;7.32;4.10;;;28.40;32.80;;;;;;6276072;22;19996;-71
2023/07/08 08:35:24;;;;;;;6.13;3.75;;;28.40;32.60;;;;;;6276256;22;20473;-71
2023/07/08 08:38:02;;;;;;;6.90;4.43;;;28.50;33.10;;;;;;6276288;22;19998;-72
2023/07/08 08:40:40;;;;;;;6.70;4.30;;;28.50;32.00;;;;;;6276306;22;20419;-71
2023/07/08 08:43:40;;;;;;;7.72;5.10;;;28.70;32.60;;;;;;6249434;22;20007;-72
2023/07/08 08:46:30;;;;;;;8.98;4.55;;;28.70;32.30;;;;;;6276141;22;19996;-71
2023/07/08 08:49:02;;;;;;;8.40;5.03;;;28.90;32.40;;;;;;6276873;22;20003;-71
2023/07/08 08:51:45;;;;;;;6.10;4.00;;;28.90;32.20;;;;;;6276020;22;19999;-70
2023/07/08 08:54:17;;;;;;;5.47;3.90;;;29.00;31.90;;;;;;6275248;22;19995;-71
2023/07/08 08:57:24;;;;;;;9.00;4.30;;;29.00;30.80;;;;;;6274874;22;20071;-71
2023/07/08 09:00:07;;;;;;;8.65;4.05;;;29.10;30.80;;;;;;6275933;22;19992;-72
2023/07/08 09:02:54;;;;;;;6.53;4.32;;;29.20;31.50;;;;;;6275429;22;20004;-70
2023/07/08 09:05:31;;;;;;;7.32;4.53;;;29.20;31.40;;;;;;6276846;22;20058;-70
2023/07/08 09:08:14;;;;;;;5.45;4.10;;;29.30;31.60;;;;;;6245064;22;20027;-70
2023/07/08 09:11:12;;;;;;;15.90;4.53;;;29.40;31.10;;;;;;6247554;22;20004;-70
2023/07/08 09:13:38;;;;;;;10.68;4.00;;;29.40;30.00;;;;;;6275842;22;19991;-69
2023/07/08 09:16:33;;;;;;;9.25;4.60;;;29.40;30.00;;;;;;6248880;22;20023;-69
2023/07/08 09:19:32;;;;;;;6.88;4.78;;;29.50;30.60;;;;;;6274747;22;19992;-70
2023/07/08 09:22:10;;;;;;;5.40;3.67;;;29.60;31.30;;;;;;6275819;22;20469;-69
2023/07/08 09:24:49;;;;;;;5.20;3.67;;;29.70;29.30;;;;;;6275593;22;20066;-69
2023/07/08 09:27:15;;;;;;;5.15;3.70;;;29.80;29.70;;;;;;6248761;22;20030;-70
2023/07/08 09:29:41;;;;;;;4.00;3.60;;;29.90;28.80;;;;;;6274957;22;19992;-72
2023/07/08 09:32:23;;;;;;;7.90;4.40;;;30.00;29.10;;;;;;6275176;22;20006;-70
2023/07/08 09:34:55;;;;;;;6.47;4.03;;;30.10;29.40;;;;;;6275651;22;19998;-71
2023/07/08 09:37:28;;;;;;;5.78;3.90;;;30.10;29.10;;;;;;6275494;22;20002;-71
2023/07/08 09:39:56;;;;;;;6.85;4.63;;;30.20;29.00;;;;;;6276314;22;20042;-69
2023/07/08 09:42:33;;;;;;;4.88;3.80;;;30.30;28.90;;;;;;6275231;22;20003;-70
2023/07/08 09:45:11;;;;;;;10.38;4.72;;;30.50;29.40;;;;;;6247784;22;20000;-71
2023/07/08 09:47:37;;;;;;;5.05;3.65;;;30.50;28.90;;;;;;6275658;22;20008;-70
2023/07/08 09:50:12;;;;;;;6.28;4.03;;;30.70;28.40;;;;;;6274825;22;19995;-71
2023/07/08 09:52:55;;;;;;;4.38;3.55;;;30.80;27.60;;;;;;6248514;22;20004;-71
2023/07/08 09:55:28;;;;;;;4.93;3.92;;;30.90;28.00;;;;;;6275647;22;20051;-71
2023/07/08 09:58:05;;;;;;;6.70;3.97;;;31.00;27.70;;;;;;6248818;22;20003;-71
2023/07/08 10:01:06;;;;;;;4.95;3.70;;;31.00;27.90;;;;;;6248663;22;20003;-71
2023/07/08 10:03:46;;;;;;;6.82;4.25;;;31.20;28.30;;;;;;6265203;22;20003;-71
2023/07/08 10:06:28;;;;;;;8.80;4.15;;;31.20;27.70;;;;;;6275445;22;20075;-72
2023/07/08 10:09:02;;;;;;;4.88;3.38;;;31.40;27.90;;;;;;6275563;22;20008;-72
2023/07/08 10:11:56;;;;;;;11.20;3.90;;;31.50;27.30;;;;;;6275386;22;20003;-71
2023/07/08 10:14:38;;;;;;;6.88;3.70;;;31.50;27.40;;;;;;6275475;22;20459;-71
2023/07/08 10:17:18;;;;;;;9.68;4.28;;;31.60;27.00;;;;;;6275929;22;20002;-70
2023/07/08 10:20:03;;;;;;;5.38;4.10;;;31.60;26.70;;;;;;6275358;22;20023;-71
2023/07/08 10:23:02;;;;;;;9.77;4.32;;;31.70;27.10;;;;;;6247426;22;20000;-71
2023/07/08 10:26:04;;;;;;;5.90;4.47;;;31.80;26.90;;;;;;6248306;22;20031;-71
2023/07/08 10:29:02;;;;;;;6.53;4.22;;;31.90;27.20;;;;;;6254726;22;20000;-71
2023/07/08 10:32:12;;;;;;;6.72;4.57;;;32.00;26.60;;;;;;6275549;22;19991;-71
2023/07/08 10:35:01;;;;;;;6.70;5.18;;;32.10;27.00;;;;;;6251244;22;20076;-71
2023/07/08 10:37:49;;;;;;;8.35;5.60;;;32.30;27.10;;;;;;6248727;22;19992;-71
2023/07/08 10:40:44;;;;;;;10.02;5.60;;;32.50;27.10;;;;;;6275892;22;20100;-70
2023/07/08 10:43:46;;;;;;;6.28;4.13;;;32.60;26.90;;;;;;6275721;22;20278;-70
2023/07/08 10:46:32;;;;;;;6.88;5.03;;;32.70;26.50;;;;;;6275660;22;19999;-71
2023/07/08 10:49:36;;;;;;;7.97;5.55;;;32.80;26.30;;;;;;6248434;22;19995;-66
2023/07/08 10:52:24;;;;;;;7.00;4.72;;;33.00;26.50;;;;;;6275451;22;20002;-70
2023/07/08 10:55:29;;;;;;;7.00;4.85;;;33.10;25.90;;;;;;6275384;22;20025;-69
2023/07/08 10:58:41;;;;;;;6.85;3.60;;;33.20;26.00;;;;;;6275174;22;19996;-71
2023/07/08 11:01:30;;;;;;;5.97;3.90;;;33.30;25.90;;;;;;6158599;22;20072;-70
2023/07/08 11:04:17;;;;;;;5.82;4.13;;;33.40;25.20;;;;;;6275218;22;20023;-70
2023/07/08 11:07:16;;;;;;;4.05;3.63;;;33.50;24.50;;;;;;6275369;22;20041;-70
2023/07/08 11:10:14;;;;;;;4.78;3.70;;;33.50;25.20;;;;;;6275158;22;20431;-70
2023/07/08 11:12:56;;;;;;;5.22;3.67;;;33.60;25.20;;;;;;6275430;22;20048;-71
2023/07/08 11:15:58;;;;;;;4.83;3.70;;;33.80;24.40;;;;;;6275549;22;19999;-70
2023/07/08 11:19:04;;;;;;;4.28;3.38;;;33.90;24.30;;;;;;6224149;22;20118;-70
2023/07/08 11:21:47;;;;;;;5.60;4.47;;;34.00;24.50;;;;;;6248528;22;19996;-70
2023/07/08 11:24:41;;;;;;;7.22;4.63;;;34.00;22.90;;;;;;6248206;22;20097;-71
2023/07/08 11:27:27;;;;;;;12.45;4.10;;;34.10;23.30;;;;;;6275385;22;20285;-70
2023/07/08 11:30:11;;;;;;;6.65;3.95;;;34.10;23.40;;;;;;6248433;22;20303;-70
2023/07/08 11:32:47;;;;;;;5.20;3.97;;;34.20;23.00;;;;;;6248187;22;20004;-70
2023/07/08 11:35:35;;;;;;;10.77;4.72;;;34.40;23.20;;;;;;6247835;22;20026;-70
2023/07/08 11:38:12;;;;;;;7.22;4.72;;;34.50;23.60;;;;;;6275365;22;20042;-71
2023/07/08 11:40:50;;;;;;;7.63;5.18;;;34.70;23.00;;;;;;6274960;22;20031;-71
2023/07/08 11:43:34;;;;;;;4.97;3.97;;;34.90;23.50;;;;;;6248043;22;20016;-71
2023/07/08 11:46:15;;;;;;;7.72;4.00;;;34.90;22.80;;;;;;6272469;22;20336;-70
2023/07/08 11:48:51;;;;;;;7.00;4.15;;;35.10;23.10;;;;;;6275307;22;20027;-71
2023/07/08 11:51:32;;;;;;;5.85;4.18;;;35.20;22.70;;;;;;6248146;22;20034;-71
2023/07/08 11:54:31;;;;;;;8.82;4.57;;;35.30;21.10;;;;;;6274848;22;19996;-71
2023/07/08 11:57:16;;;;;;;7.28;4.55;;;35.30;21.90;;;;;;6248139;22;20018;-71
2023/07/08 12:00:13;;;;;;;6.80;4.88;;;35.40;22.40;;;;;;6248153;22;19996;-72
2023/07/08 12:03:00;;;;;;;7.10;5.30;;;35.50;22.40;;;;;;6248019;22;20027;-71
2023/07/08 12:05:38;;;;;;;5.30;4.20;;;35.60;22.20;;;;;;6277313;22;19993;-71
2023/07/08 12:08:20;;;;;;;7.18;4.80;;;35.70;21.80;;;;;;6249662;22;19995;-70
2023/07/08 12:10:52;;;;;;;8.77;4.72;;;35.80;22.20;;;;;;6248770;22;20041;-70
2023/07/08 12:13:23;;;;;;;7.23;4.47;;;35.80;21.00;;;;;;6277065;22;20000;-71
2023/07/08 12:15:49;;;;;;;6.65;5.30;;;35.90;21.30;;;;;;6250126;22;20022;-75
2023/07/08 12:18:27;;;;;;;7.65;5.28;;;35.90;21.90;;;;;;6277186;22;20031;-72
2023/07/08 12:20:59;;;;;;;7.32;4.70;;;36.00;21.50;;;;;;6249219;22;20003;-72
2023/07/08 12:23:27;;;;;;;4.55;3.70;;;36.00;21.30;;;;;;6249898;22;20025;-71
2023/07/08 12:26:03;;;;;;;15.35;4.95;;;36.00;20.80;;;;;;6276043;22;20304;-72
2023/07/08 12:28:50;;;;;;;6.35;4.38;;;36.00;20.70;;;;;;6249693;22;19999;-73
2023/07/08 12:31:28;;;;;;;6.30;4.47;;;36.00;20.50;;;;;;6276540;22;20002;-72
2023/07/08 12:34:00;;;;;;;6.53;4.70;;;35.90;20.70;;;;;;6249798;22;20287;-73
2023/07/08 12:36:47;;;;;;;5.38;4.68;;;35.90;20.90;;;;;;6249752;22;20003;-72
2023/07/08 12:39:29;;;;;;;6.78;3.78;;;35.80;20.90;;;;;;6276295;22;20067;-72
2023/07/08 12:42:00;;;;;;;7.38;4.35;;;35.80;20.50;;;;;;6276377;22;20086;-73
2023/07/08 12:44:28;;;;;;;7.18;4.88;;;35.70;20.50;;;;;;6276771;22;19996;-72
2023/07/08 12:47:02;;;;;;;8.43;4.15;;;35.50;20.70;;;;;;6249459;22;20022;-72
2023/07/08 12:49:53;;;;;;;7.25;5.13;;;35.50;20.50;;;;;;6249309;22;19995;-72
2023/07/08 12:52:42;;;;;;;4.40;3.85;;;35.50;20.80;;;;;;6248255;22;20308;-73
2023/07/08 12:55:24;;;;;;;5.22;3.80;;;35.50;20.30;;;;;;6248112;22;20000;-72
2023/07/08 12:58:01;;;;;;;5.82;4.13;;;35.50;20.60;;;;;;6276165;22;19996;-72
2023/07/08 13:00:38;;;;;;;5.18;3.88;;;35.60;20.60;;;;;;6276150;22;20015;-72
2023/07/08 13:03:15;;;;;;;6.63;4.47;;;35.60;20.30;;;;;;6248955;22;20019;-73
2023/07/08 13:05:52;;;;;;;6.55;4.30;;;35.60;20.90;;;;;;6276258;22;19992;-73
2023/07/08 13:08:38;;;;;;;7.57;4.53;;;35.60;20.50;;;;;;6276092;22;19996;-72
2023/07/08 13:11:15;;;;;;;6.93;4.40;;;35.60;20.20;;;;;;6247859;22;20003;-72
2023/07/08 13:14:01;;;;;;;8.90;4.45;;;35.60;20.80;;;;;;6275819;22;19996;-72
2023/07/08 13:16:34;;;;;;;5.88;4.82;;;35.60;21.40;;;;;;6249242;22;19996;-72
2023/07/08 13:19:03;;;;;;;8.00;5.85;;;35.70;21.70;;;;;;6248556;22;19996;-72
2023/07/08 13:21:43;;;;;;;9.07;6.38;;;35.80;21.80;;;;;;6248689;22;20396;-72
2023/07/08 13:24:19;;;;;;;6.70;5.28;;;35.90;21.90;;;;;;6276149;22;20021;-73
2023/07/08 13:26:55;;;;;;;7.75;5.55;;;36.00;21.30;;;;;;6276075;22;20354;-72
2023/07/08 13:29:26;;;;;;;9.20;5.53;;;36.10;21.40;;;;;;6275645;22;19996;-73
2023/07/08 13:32:06;;;;;;;9.63;6.20;;;36.20;20.80;;;;;;6248882;22;20247;-72
2023/07/08 13:34:53;;;;;;;7.50;5.40;;;36.30;21.60;;;;;;6248126;22;20004;-73
2023/07/08 13:37:25;;;;;;;9.70;4.30;;;36.40;20.80;;;;;;6276245;22;19996;-72
2023/07/08 13:40:05;;;;;;;8.07;4.35;;;36.60;20.10;;;;;;6248991;22;20011;-71
2023/07/08 13:42:46;;;;;;;5.28;4.07;;;36.60;20.30;;;;;;6275628;22;20071;-72
2023/07/08 13:45:43;;;;;;;6.28;4.30;;;36.70;19.60;;;;;;6248799;22;20349;-72
2023/07/08 13:48:20;;;;;;;7.88;5.80;;;36.80;20.40;;;;;;6275886;22;20062;-72
2023/07/08 13:51:30;;;;;;;7.15;4.65;;;36.90;20.40;;;;;;6275475;22;19992;-72